Time;durP1;ratioP1;P1;durP2;ratioP2;P2;SDS_P1;SDS_P2;PMS_P1;PMS_P2;Temp;Humidity;BMP_temperature;BMP_pressure;BME280_temperature;BME280_humidity;BME280_pressure;Samples;Min_cycle;Max_cycle;Signal;HPM_P1;HPM_P2
2024/04/10 00:00:54;0.00;0.00;0.62;0.00;0.00;0.62;;;;;13.20;1.00;;;;;;2163613;66;1905;-84
2024/04/10 00:03:22;0.00;0.00;0.62;0.00;0.00;0.62;;;;;12.80;1.00;;;;;;2164330;66;1030;-84
2024/04/10 00:06:00;50098.00;0.17;87.36;0.00;0.00;0.62;;;;;12.70;1.00;;;;;;2164308;66;1244;-85
2024/04/10 00:08:26;0.00;0.00;0.62;0.00;0.00;0.62;;;;;12.90;1.00;;;;;;2164358;66;1312;-84
2024/04/10 00:10:55;5076.00;0.02;9.42;0.00;0.00;0.62;;;;;13.20;1.00;;;;;;2164152;66;1134;-85
2024/04/10 00:13:21;0.00;0.00;0.62;0.00;0.00;0.62;;;;;12.90;1.00;;;;;;2164342;66;1235;-85
2024/04/10 00:16:02;0.00;0.00;0.62;0.00;0.00;0.62;;;;;12.60;1.00;;;;;;2164406;66;904;-85
2024/04/10 00:18:30;25665.00;0.09;45.08;0.00;0.00;0.62;;;;;12.50;1.00;;;;;;2164322;66;1408;-83
2024/04/10 00:20:59;0.00;0.00;0.62;0.00;0.00;0.62;;;;;12.10;1.00;;;;;;2164302;66;1907;-85
2024/04/10 00:23:25;100371.00;0.33;174.21;21455.00;0.07;37.79;;;;;12.00;1.00;;;;;;2164377;66;961;-82
2024/04/10 00:25:58;0.00;0.00;0.62;0.00;0.00;0.62;;;;;12.10;1.00;;;;;;2164326;66;1075;-85
2024/04/10 00:28:24;0.00;0.00;0.62;0.00;0.00;0.62;;;;;12.10;1.00;;;;;;2164232;66;1247;-83
2024/04/10 00:30:52;0.00;0.00;0.62;0.00;0.00;0.62;;;;;12.10;1.00;;;;;;2164347;66;1179;-84
2024/04/10 00:33:21;0.00;0.00;0.62;0.00;0.00;0.62;;;;;12.20;1.00;;;;;;2164132;66;1254;-85
2024/04/10 00:35:59;6679.00;0.02;12.20;0.00;0.00;0.62;;;;;12.30;1.00;;;;;;2164243;66;1125;-83
2024/04/10 00:38:26;44953.00;0.15;78.46;0.00;0.00;0.62;;;;;12.30;1.00;;;;;;2164171;66;1279;-83
2024/04/10 00:40:57;0.00;0.00;0.62;0.00;0.00;0.62;;;;;12.20;1.00;;;;;;2164136;66;1897;-83
2024/04/10 00:43:22;109720.00;0.37;190.35;42116.00;0.14;73.55;;;;;11.90;1.00;;;;;;2164184;66;1568;-84
2024/04/10 00:45:57;109076.00;0.36;189.24;41225.00;0.14;72.01;;;;;11.70;1.00;;;;;;2164148;66;1603;-84
2024/04/10 00:48:26;0.00;0.00;0.62;0.00;0.00;0.62;;;;;11.70;1.00;;;;;;2164217;66;2471;-85
2024/04/10 00:50:55;30416.00;0.10;53.30;0.00;0.00;0.62;;;;;11.80;1.00;;;;;;2164138;66;1054;-83
2024/04/10 00:53:22;0.00;0.00;0.62;0.00;0.00;0.62;;;;;12.10;1.00;;;;;;2164192;66;1794;-85
2024/04/10 00:55:51;16303.00;0.05;28.87;0.00;0.00;0.62;;;;;12.30;1.00;;;;;;2164226;66;1070;-84
2024/04/10 00:58:17;25752.00;0.09;45.23;0.00;0.00;0.62;;;;;12.20;1.00;;;;;;2164232;66;1224;-84
2024/04/10 01:00:45;11769.00;0.04;21.01;0.00;0.00;0.62;;;;;11.90;1.00;;;;;;2164690;66;1869;-84
2024/04/10 01:03:11;195973.00;0.65;338.99;25454.00;0.08;44.71;;;;;11.70;1.00;;;;;;2164786;66;1090;-84
2024/04/10 01:05:43;119742.00;0.40;207.64;0.00;0.00;0.62;;;;;11.40;1.00;;;;;;2164840;66;1140;-83
2024/04/10 01:08:08;0.00;0.00;0.62;0.00;0.00;0.62;;;;;11.60;1.00;;;;;;2164773;66;1317;-84
2024/04/10 01:10:37;10591.00;0.04;18.97;0.00;0.00;0.62;;;;;11.70;1.00;;;;;;2164704;66;1051;-83
2024/04/10 01:13:04;13028.00;0.04;23.19;0.00;0.00;0.62;;;;;11.50;1.00;;;;;;2164809;66;895;-83
2024/04/10 01:15:33;0.00;0.00;0.62;0.00;0.00;0.62;;;;;11.50;1.00;;;;;;2164789;66;1050;-82
2024/04/10 01:17:58;0.00;0.00;0.62;0.00;0.00;0.62;;;;;11.50;1.00;;;;;;2164711;66;1214;-83
2024/04/10 01:20:27;15615.00;0.05;27.68;0.00;0.00;0.62;;;;;11.40;1.00;;;;;;2164674;66;2336;-82
2024/04/10 01:23:01;21319.00;0.07;37.55;0.00;0.00;0.62;;;;;11.10;1.00;;;;;;2164717;66;1096;-83
2024/04/10 01:25:29;0.00;0.00;0.62;0.00;0.00;0.62;;;;;11.10;1.00;;;;;;2164787;66;1068;-82
2024/04/10 01:27:55;34350.00;0.11;60.11;0.00;0.00;0.62;;;;;11.20;1.00;;;;;;2164699;66;1279;-84
2024/04/10 01:30:24;114561.00;0.38;198.70;0.00;0.00;0.62;;;;;11.40;1.00;;;;;;2164752;66;1003;-83
2024/04/10 01:32:50;0.00;0.00;0.62;0.00;0.00;0.62;;;;;11.30;1.00;;;;;;2164744;66;1100;-84
2024/04/10 01:35:19;27249.00;0.09;47.82;0.00;0.00;0.62;;;;;11.30;1.00;;;;;;2164538;66;2301;-85
2024/04/10 01:37:45;14304.00;0.05;25.41;0.00;0.00;0.62;;;;;11.70;1.00;;;;;;2164710;66;1247;-84
2024/04/10 01:40:16;161432.00;0.54;279.51;0.00;0.00;0.62;;;;;11.70;1.00;;;;;;2164678;66;1897;-84
2024/04/10 01:42:43;0.00;0.00;0.62;0.00;0.00;0.62;;;;;11.50;1.00;;;;;;2164620;66;1501;-84
2024/04/10 01:45:12;0.00;0.00;0.62;0.00;0.00;0.62;;;;;11.70;1.00;;;;;;2164619;66;1468;-86
2024/04/10 01:47:38;43463.00;0.14;75.88;0.00;0.00;0.62;;;;;12.30;1.00;;;;;;2164706;66;1200;-86
2024/04/10 01:50:08;0.00;0.00;0.62;0.00;0.00;0.62;;;;;12.20;1.00;;;;;;2164664;66;2014;-86
2024/04/10 01:52:34;117365.00;0.39;203.54;0.00;0.00;0.62;;;;;12.30;1.00;;;;;;2164696;66;2273;-85
2024/04/10 01:55:02;12413.00;0.04;22.13;0.00;0.00;0.62;;;;;12.40;1.00;;;;;;2164702;66;1030;-83
2024/04/10 01:57:31;0.00;0.00;0.62;0.00;0.00;0.62;;;;;12.00;1.00;;;;;;2164678;66;1240;-85
2024/04/10 01:59:59;181227.00;0.60;313.60;0.00;0.00;0.62;;;;;11.70;1.00;;;;;;2164635;66;1871;-85
2024/04/10 02:02:25;0.00;0.00;0.62;0.00;0.00;0.62;;;;;11.80;1.00;;;;;;2164625;66;1034;-84
2024/04/10 02:04:53;47953.00;0.16;83.65;0.00;0.00;0.62;;;;;11.70;1.00;;;;;;2164635;66;1106;-84
2024/04/10 02:07:19;52422.00;0.17;91.37;0.00;0.00;0.62;;;;;11.60;1.00;;;;;;2164658;66;1245;-85
2024/04/10 02:09:48;130124.00;0.43;225.54;53047.00;0.18;92.46;;;;;11.70;1.00;;;;;;2164514;66;1095;-85
2024/04/10 02:12:13;0.00;0.00;0.62;0.00;0.00;0.62;;;;;12.00;1.00;;;;;;2164687;66;1042;-85
2024/04/10 02:14:44;10726.00;0.04;19.21;0.00;0.00;0.62;;;;;12.20;1.00;;;;;;2164648;66;1005;-85
2024/04/10 02:17:10;68330.00;0.23;118.87;0.00;0.00;0.62;;;;;12.70;1.00;;;;;;2164542;66;2165;-86
2024/04/10 02:19:39;28694.00;0.10;50.32;0.00;0.00;0.62;;;;;12.90;1.00;;;;;;2164488;66;2476;-84
2024/04/10 02:22:06;14705.00;0.05;26.10;0.00;0.00;0.62;;;;;12.90;1.00;;;;;;2164457;66;1065;-85
2024/04/10 02:24:34;87162.00;0.29;151.41;10344.00;0.03;18.55;;;;;13.00;1.00;;;;;;2164595;66;1379;-85
2024/04/10 02:27:00;0.00;0.00;0.62;0.00;0.00;0.62;;;;;13.20;1.00;;;;;;2164519;66;1231;-86
2024/04/10 02:29:30;140257.00;0.47;243.01;0.00;0.00;0.62;;;;;13.20;1.00;;;;;;2164598;66;1349;-85
2024/04/10 02:31:59;0.00;0.00;0.62;0.00;0.00;0.62;;;;;13.30;1.00;;;;;;2164561;66;2259;-85
2024/04/10 02:34:28;0.00;0.00;0.62;0.00;0.00;0.62;;;;;13.50;1.00;;;;;;2164607;66;1226;-85
2024/04/10 02:36:54;67253.00;0.22;117.01;0.00;0.00;0.62;;;;;12.90;1.00;;;;;;2164502;66;1208;-86
2024/04/10 02:39:22;48950.00;0.16;85.37;0.00;0.00;0.62;;;;;13.00;1.00;;;;;;2164622;66;1020;-84
2024/04/10 02:41:49;8720.00;0.03;15.73;0.00;0.00;0.62;;;;;12.60;1.00;;;;;;2164490;66;1862;-85
2024/04/10 02:44:17;0.00;0.00;0.62;0.00;0.00;0.62;;;;;12.50;1.00;;;;;;2164410;66;1587;-85
2024/04/10 02:46:43;7473.00;0.02;13.57;0.00;0.00;0.62;;;;;12.50;1.00;;;;;;2164541;66;1270;-85
2024/04/10 02:49:14;7826.00;0.03;14.18;0.00;0.00;0.62;;;;;12.60;1.00;;;;;;2164611;66;933;-85
2024/04/10 02:51:40;121051888.00;403.51;71858720.00;0.00;0.00;0.62;;;;;12.30;1.00;;;;;;2164630;66;1015;-85
2024/04/10 02:54:08;146632.00;0.49;254.00;26513.00;0.09;46.55;;;;;12.00;1.00;;;;;;2164623;66;1119;-85
2024/04/10 02:56:34;0.00;0.00;0.62;0.00;0.00;0.62;;;;;11.80;1.00;;;;;;2164493;66;1298;-84
2024/04/10 02:59:03;45355.00;0.15;79.15;0.00;0.00;0.62;;;;;11.50;1.00;;;;;;2164553;66;1116;-86
2024/04/10 03:01:29;76457.00;0.25;132.92;0.00;0.00;0.62;;;;;11.60;1.00;;;;;;2164470;66;1861;-84
2024/04/10 03:03:57;17172.00;0.06;30.37;0.00;0.00;0.62;;;;;11.50;1.00;;;;;;2164499;66;1302;-86
2024/04/10 03:06:26;17745.00;0.06;31.36;0.00;0.00;0.62;;;;;11.60;1.00;;;;;;2164522;66;1044;-86
2024/04/10 03:08:54;72821.00;0.24;126.63;0.00;0.00;0.62;;;;;11.90;1.00;;;;;;2164538;66;997;-86
2024/04/10 03:11:20;0.00;0.00;0.62;0.00;0.00;0.62;;;;;11.70;1.00;;;;;;2164465;66;1100;-85
2024/04/10 03:13:49;141700.00;0.47;245.50;0.00;0.00;0.62;;;;;12.00;1.00;;;;;;2164478;66;1026;-87
2024/04/10 03:16:14;21952.00;0.07;38.65;0.00;0.00;0.62;;;;;11.90;1.00;;;;;;2164450;66;1091;-84
2024/04/10 03:18:43;96307.00;0.32;167.20;0.00;0.00;0.62;;;;;12.30;1.00;;;;;;2164504;66;1130;-86
2024/04/10 03:21:09;0.00;0.00;0.62;0.00;0.00;0.62;;;;;12.60;1.00;;;;;;2164259;66;1900;-86
2024/04/10 03:23:40;7826.00;0.03;14.18;0.00;0.00;0.62;;;;;12.70;1.00;;;;;;2164468;66;1018;-84
2024/04/10 03:26:08;0.00;0.00;0.62;0.00;0.00;0.62;;;;;12.60;1.00;;;;;;2164462;66;886;-86
2024/04/10 03:28:36;85163.00;0.28;147.95;0.00;0.00;0.62;;;;;13.20;1.00;;;;;;2164287;66;2128;-87
2024/04/10 03:31:05;238041.00;0.79;411.38;40430.00;0.13;70.63;;;;;13.30;1.00;;;;;;2164427;66;2333;-86
2024/04/10 03:33:34;16439.00;0.05;29.10;0.00;0.00;0.62;;;;;13.40;1.00;;;;;;2164452;66;1270;-84
2024/04/10 03:36:00;243456.00;0.81;420.70;55463.00;0.18;96.63;;;;;13.40;1.00;;;;;;2164459;66;869;-85
2024/04/10 03:38:28;33661.00;0.11;58.92;0.00;0.00;0.62;;;;;13.10;1.00;;;;;;2164794;66;1264;-85
2024/04/10 03:40:57;92057.00;0.31;159.86;0.00;0.00;0.62;;;;;12.20;1.00;;;;;;2164329;66;1895;-82
2024/04/10 03:43:25;99578.00;0.33;172.84;0.00;0.00;0.62;;;;;11.30;1.00;;;;;;2164457;66;1018;-84
2024/04/10 03:45:54;51135.00;0.17;89.15;0.00;0.00;0.62;;;;;11.00;1.00;;;;;;2164405;66;1094;-85
2024/04/10 03:48:20;166945.00;0.56;289.00;0.00;0.00;0.62;;;;;10.90;1.00;;;;;;2164807;66;1239;-84
2024/04/10 03:50:48;0.00;0.00;0.62;0.00;0.00;0.62;;;;;10.90;1.00;;;;;;2164396;66;1029;-84
2024/04/10 03:53:15;84246.00;0.28;146.37;13955.00;0.05;24.80;;;;;10.90;1.00;;;;;;2164408;66;1014;-84
2024/04/10 03:55:43;257882.00;0.86;445.51;51524.00;0.17;89.82;;;;;11.00;1.00;;;;;;2164367;66;1270;-85
2024/04/10 03:58:12;84462.00;0.28;146.74;0.00;0.00;0.62;;;;;11.00;1.00;;;;;;2164300;66;1228;-85
2024/04/10 04:00:40;41182.00;0.14;71.93;0.00;0.00;0.62;;;;;11.40;1.00;;;;;;2164289;66;1869;-85
2024/04/10 04:03:06;87510.00;0.29;152.01;0.00;0.00;0.62;;;;;11.80;1.00;;;;;;2164302;66;1023;-84
2024/04/10 04:05:34;63154.00;0.21;109.93;0.00;0.00;0.62;;;;;11.60;1.00;;;;;;2164321;66;1039;-85
2024/04/10 04:08:00;68122.00;0.23;118.52;0.00;0.00;0.62;;;;;11.70;1.00;;;;;;2164621;66;1261;-86
2024/04/10 04:10:29;75087.00;0.25;130.55;0.00;0.00;0.62;;;;;11.60;1.00;;;;;;2164239;66;1076;-86
2024/04/10 04:12:55;0.00;0.00;0.62;0.00;0.00;0.62;;;;;12.30;1.00;;;;;;2164321;66;1066;-87
2024/04/10 04:15:26;94386.00;0.31;163.88;16060.00;0.05;28.45;;;;;12.40;1.00;;;;;;2164317;66;912;-86
2024/04/10 04:17:52;179716.00;0.60;311.00;31642.00;0.11;55.43;;;;;12.70;1.00;;;;;;2164377;66;1380;-84
2024/04/10 04:20:21;4655.00;0.02;8.69;0.00;0.00;0.62;;;;;13.00;1.00;;;;;;2164197;66;1908;-84
2024/04/10 04:22:46;55644.00;0.19;96.95;0.00;0.00;0.62;;;;;13.70;1.00;;;;;;2164264;66;1023;-85
2024/04/10 04:25:15;13630.00;0.05;24.24;0.00;0.00;0.62;;;;;14.20;1.00;;;;;;2164918;66;888;-85
2024/04/10 04:27:41;0.00;0.00;0.62;0.00;0.00;0.62;;;;;14.60;1.00;;;;;;2164165;66;1226;-84
2024/04/10 04:30:12;50328.00;0.17;87.75;0.00;0.00;0.62;;;;;14.60;1.00;;;;;;2164149;66;1100;-84
2024/04/10 04:32:41;185031.00;0.62;320.15;47977.00;0.16;83.69;;;;;14.20;1.00;;;;;;2164349;66;1316;-85
2024/04/10 04:35:10;90731.00;0.30;157.57;0.00;0.00;0.62;;;;;13.70;1.00;;;;;;2164685;66;1139;-85
2024/04/10 04:37:35;104231.00;0.35;180.87;0.00;0.00;0.62;;;;;13.50;1.00;;;;;;2164675;66;1330;-86
2024/04/10 04:40:06;143249.00;0.48;248.17;3444.00;0.01;6.59;;;;;13.80;1.00;;;;;;2164608;66;1895;-86
2024/04/10 04:42:32;26962.00;0.09;47.32;0.00;0.00;0.62;;;;;14.40;1.00;;;;;;2164817;66;1011;-85
2024/04/10 04:45:00;22367.00;0.07;39.37;0.00;0.00;0.62;;;;;14.30;1.00;;;;;;2164582;66;2322;-86
2024/04/10 04:47:28;149146.00;0.50;258.34;47788.00;0.16;83.36;;;;;14.20;1.00;;;;;;2164760;66;1186;-85
2024/04/10 04:49:59;6342.00;0.02;11.61;0.00;0.00;0.62;;;;;14.30;1.00;;;;;;2164695;66;2177;-87
2024/04/10 04:52:25;95669.00;0.32;166.10;28912.00;0.10;50.70;;;;;14.10;1.00;;;;;;2164760;66;1012;-86
2024/04/10 04:54:53;152224.00;0.51;263.64;39132.00;0.13;68.39;;;;;14.20;1.00;;;;;;2164563;66;1520;-86
2024/04/10 04:57:20;27927.00;0.09;48.99;0.00;0.00;0.62;;;;;13.80;1.00;;;;;;2164874;66;1251;-86
2024/04/10 04:59:49;0.00;0.00;0.62;0.00;0.00;0.62;;;;;12.80;1.00;;;;;;2164691;66;895;-86
2024/04/10 05:02:15;0.00;0.00;0.62;0.00;0.00;0.62;;;;;12.50;1.00;;;;;;2164659;66;2323;-86
2024/04/10 05:05:02;0.00;0.00;0.62;0.00;0.00;0.62;;;;;12.00;1.00;;;;;;2164616;66;2365;-85
2024/04/10 05:07:31;50345.00;0.17;87.78;0.00;0.00;0.62;;;;;11.60;1.00;;;;;;2164722;66;1273;-85
2024/04/10 05:09:59;24872.00;0.08;43.71;0.00;0.00;0.62;;;;;11.40;1.00;;;;;;2164525;66;1103;-85
2024/04/10 05:12:25;0.00;0.00;0.62;0.00;0.00;0.62;;;;;11.40;1.00;;;;;;2164621;66;1023;-85
2024/04/10 05:14:55;141793.00;0.47;245.66;0.00;0.00;0.62;;;;;11.40;1.00;;;;;;2164591;66;1037;-85
2024/04/10 05:17:21;41258.00;0.14;72.06;0.00;0.00;0.62;;;;;11.60;1.00;;;;;;2164520;66;1639;-85
2024/04/10 05:19:49;63672.00;0.21;110.82;0.00;0.00;0.62;;;;;11.70;1.00;;;;;;2164676;66;1036;-86
2024/04/10 05:22:15;283412.00;0.94;489.40;41050.00;0.14;71.71;;;;;11.80;1.00;;;;;;2164617;66;1897;-85
2024/04/10 05:24:46;0.00;0.00;0.62;0.00;0.00;0.62;;;;;11.90;1.00;;;;;;2164588;66;1049;-87
2024/04/10 05:27:22;0.00;0.00;0.62;0.00;0.00;0.62;;;;;12.00;1.00;;;;;;2164533;66;1351;-85
2024/04/10 05:30:00;168021.00;0.56;290.86;16749.00;0.06;29.64;;;;;12.30;1.00;;;;;;2164604;66;989;-85
2024/04/10 05:32:26;0.00;0.00;0.62;0.00;0.00;0.62;;;;;12.30;1.00;;;;;;2164655;66;1002;-86
2024/04/10 05:34:55;1012.00;0.00;2.37;0.00;0.00;0.62;;;;;13.00;1.00;;;;;;2164647;66;988;-87
2024/04/10 05:37:22;0.00;0.00;0.62;0.00;0.00;0.62;;;;;13.40;1.00;;;;;;2164710;66;1238;-86
2024/04/10 05:40:05;153858.00;0.51;266.46;0.00;0.00;0.62;;;;;13.60;1.00;;;;;;2164619;66;1102;-86
2024/04/10 05:42:32;84606.00;0.28;146.99;0.00;0.00;0.62;;;;;13.80;1.00;;;;;;2164519;66;1897;-86
2024/04/10 05:45:01;34901.00;0.12;61.07;0.00;0.00;0.62;;;;;14.00;1.00;;;;;;2164463;66;1037;-87
2024/04/10 05:47:26;39507.00;0.13;69.04;0.00;0.00;0.62;;;;;14.10;1.00;;;;;;2164688;66;1272;-86
2024/04/10 05:49:58;0.00;0.00;0.62;0.00;0.00;0.62;;;;;14.00;1.00;;;;;;2164693;66;2401;-87
2024/04/10 05:52:25;30716.00;0.10;53.82;0.00;0.00;0.62;;;;;13.40;1.00;;;;;;2164666;66;1070;-85
2024/04/10 05:54:56;44085.00;0.15;76.96;0.00;0.00;0.62;;;;;13.20;1.00;;;;;;2164524;66;1093;-85
2024/04/10 05:57:24;37932.00;0.13;66.31;0.00;0.00;0.62;;;;;12.70;1.00;;;;;;2164595;66;1243;-86
2024/04/10 05:59:54;0.00;0.00;0.62;0.00;0.00;0.62;;;;;12.80;1.00;;;;;;2164687;66;1234;-86
2024/04/10 06:02:20;0.00;0.00;0.62;0.00;0.00;0.62;;;;;12.70;1.00;;;;;;2164588;66;1870;-85
2024/04/10 06:04:49;0.00;0.00;0.62;0.00;0.00;0.62;;;;;12.30;1.00;;;;;;2164659;66;1097;-84
2024/04/10 06:07:14;141053.00;0.47;244.39;28113.00;0.09;49.32;;;;;11.90;1.00;;;;;;2164456;66;1373;-84
2024/04/10 06:09:43;0.00;0.00;0.62;0.00;0.00;0.62;;;;;12.10;1.00;;;;;;2164523;66;1065;-83
2024/04/10 06:12:11;78527.00;0.26;136.49;4860.00;0.02;9.04;;;;;12.50;1.00;;;;;;2164599;66;918;-85
2024/04/10 06:14:40;276331.00;0.92;477.23;123998.00;0.41;214.98;;;;;12.50;1.00;;;;;;2164619;66;1073;-84
2024/04/10 06:17:06;168469.00;0.56;291.63;27789.00;0.09;48.76;;;;;12.60;1.00;;;;;;2164477;66;1209;-86
2024/04/10 06:19:34;10275.00;0.03;18.43;0.00;0.00;0.62;;;;;12.80;1.00;;;;;;2164476;66;1143;-85
2024/04/10 06:22:00;392011.00;1.31;676.07;107064.00;0.36;185.76;;;;;13.20;1.00;;;;;;2164499;66;1874;-85
2024/04/10 06:24:29;18137.00;0.06;32.04;0.00;0.00;0.62;;;;;13.20;1.00;;;;;;2164587;66;1020;-86
2024/04/10 06:26:55;3260.00;0.01;6.27;0.00;0.00;0.62;;;;;13.40;1.00;;;;;;2164464;66;1261;-86
2024/04/10 06:29:26;91002.00;0.30;158.04;10855.00;0.04;19.43;;;;;13.40;1.00;;;;;;2164522;66;877;-85
2024/04/10 06:31:52;158495.00;0.53;274.45;30875.00;0.10;54.10;;;;;13.60;1.00;;;;;;2164551;66;1750;-86
2024/04/10 06:34:21;505059.00;1.68;870.53;152374.00;0.51;263.90;;;;;13.50;1.00;;;;;;2164591;66;1388;-85
2024/04/10 06:36:47;313717.00;1.05;541.50;36146.00;0.12;63.22;;;;;13.30;1.00;;;;;;2164520;66;1271;-85
2024/04/10 06:39:15;223353.00;0.74;386.11;0.00;0.00;0.62;;;;;13.50;1.00;;;;;;2164644;66;1110;-86
2024/04/10 06:41:41;103638.00;0.35;179.85;0.00;0.00;0.62;;;;;13.60;1.00;;;;;;2164607;66;1864;-86
2024/04/10 06:44:10;205652.00;0.69;355.65;0.00;0.00;0.62;;;;;13.80;1.00;;;;;;2164716;66;1007;-85
2024/04/10 06:46:38;105052.00;0.35;182.29;0.00;0.00;0.62;;;;;13.80;1.00;;;;;;2164596;66;1210;-85
2024/04/10 06:49:07;504565.00;1.68;869.68;79341.00;0.26;137.90;;;;;13.70;1.00;;;;;;2164555;66;1025;-83
2024/04/10 06:51:34;70745.00;0.24;123.05;0.00;0.00;0.62;;;;;13.60;1.00;;;;;;2164631;66;2199;-88
2024/04/10 06:54:03;122107.00;0.41;211.72;0.00;0.00;0.62;;;;;13.40;1.00;;;;;;2164534;66;1291;-84
2024/04/10 06:56:29;227185.00;0.76;392.71;0.00;0.00;0.62;;;;;12.90;1.00;;;;;;2164218;66;1209;-85
2024/04/10 06:58:58;263166.00;0.88;454.59;29433.00;0.10;51.60;;;;;12.80;1.00;;;;;;2164515;66;1082;-85
2024/04/10 07:01:24;75461.00;0.25;131.20;0.00;0.00;0.62;;;;;13.40;1.00;;;;;;2164533;66;1864;-86
2024/04/10 07:03:55;48225.00;0.16;84.12;0.00;0.00;0.62;;;;;13.90;1.00;;;;;;2164454;66;1122;-84
2024/04/10 07:06:21;169867.00;0.57;294.04;44608.00;0.15;77.86;;;;;14.10;1.00;;;;;;2164569;66;1082;-87
2024/04/10 07:08:51;320288.00;1.07;552.79;64338.00;0.21;111.98;;;;;13.50;1.00;;;;;;2164555;66;1365;-86
2024/04/10 07:11:21;9433.00;0.03;16.97;0.00;0.00;0.62;;;;;13.90;1.00;;;;;;2164421;66;2335;-86
2024/04/10 07:13:48;43921.00;0.15;76.67;0.00;0.00;0.62;;;;;14.00;1.00;;;;;;2164527;66;1093;-85
2024/04/10 07:16:17;28791.00;0.10;50.49;0.00;0.00;0.62;;;;;14.10;1.00;;;;;;2164577;66;923;-85
2024/04/10 07:18:44;4406.00;0.01;8.26;0.00;0.00;0.62;;;;;14.30;1.00;;;;;;2164545;66;1130;-86
2024/04/10 07:21:17;22148.00;0.07;38.99;0.00;0.00;0.62;;;;;14.50;1.00;;;;;;2164458;66;1869;-85
2024/04/10 07:23:45;173131.00;0.58;299.66;31669.00;0.11;55.47;;;;;14.40;1.00;;;;;;2164474;66;1101;-87
2024/04/10 07:26:15;195154.00;0.65;337.58;0.00;0.00;0.62;;;;;14.40;1.00;;;;;;2164473;66;1344;-85
2024/04/10 07:28:43;94196.00;0.31;163.55;0.00;0.00;0.62;;;;;14.50;1.00;;;;;;2164493;66;1310;-86
2024/04/10 07:31:13;7215.00;0.02;13.12;0.00;0.00;0.62;;;;;14.70;1.00;;;;;;2164469;66;1010;-85
2024/04/10 07:33:39;129633.00;0.43;224.70;0.00;0.00;0.62;;;;;14.80;1.00;;;;;;2164416;66;1074;-85
2024/04/10 07:36:16;18169.00;0.06;32.10;0.00;0.00;0.62;;;;;14.90;1.00;;;;;;2164350;66;2454;-84
2024/04/10 07:38:42;0.00;0.00;0.62;0.00;0.00;0.62;;;;;15.10;1.00;;;;;;2164481;66;1398;-85
2024/04/10 07:41:12;41781.00;0.14;72.97;0.00;0.00;0.62;;;;;15.10;1.00;;;;;;2164514;66;1899;-85
2024/04/10 07:43:39;81189.00;0.27;141.09;0.00;0.00;0.62;;;;;14.70;1.00;;;;;;2164475;66;1254;-84
2024/04/10 07:46:11;155723.00;0.52;269.67;0.00;0.00;0.62;;;;;14.90;1.00;;;;;;2164460;66;1069;-85
2024/04/10 07:48:38;129550.00;0.43;224.55;0.00;0.00;0.62;;;;;14.70;1.00;;;;;;2164513;66;1242;-85
2024/04/10 07:51:08;72735.00;0.24;126.49;0.00;0.00;0.62;;;;;14.60;1.00;;;;;;2164489;66;1069;-85
2024/04/10 07:53:37;162655.00;0.54;281.61;31910.00;0.11;55.89;;;;;14.70;1.00;;;;;;2164488;66;1069;-85
2024/04/10 07:56:07;9311.00;0.03;16.76;0.00;0.00;0.62;;;;;14.90;1.00;;;;;;2164361;66;970;-85
2024/04/10 07:58:34;342933.00;1.14;591.71;78187.00;0.26;135.91;;;;;15.20;1.00;;;;;;2164486;66;1255;-84
2024/04/10 08:01:03;1027.00;0.00;2.40;0.00;0.00;0.62;;;;;15.40;1.00;;;;;;2164473;66;1869;-86
2024/04/10 08:03:30;6901.00;0.02;12.58;0.00;0.00;0.62;;;;;15.30;1.00;;;;;;2164495;66;976;-86
2024/04/10 08:05:59;225786.00;0.75;390.30;0.00;0.00;0.62;;;;;14.60;1.00;;;;;;2164341;66;1489;-85
2024/04/10 08:08:26;61173.00;0.20;106.50;0.00;0.00;0.62;;;;;14.90;1.00;;;;;;2165009;66;2133;-84
2024/04/10 08:11:03;23700.00;0.08;41.68;0.00;0.00;0.62;;;;;15.40;1.00;;;;;;2164811;66;1267;-85
2024/04/10 08:13:29;480601.00;1.60;828.43;78451.00;0.26;136.36;;;;;15.70;1.00;;;;;;2164922;66;1062;-86
2024/04/10 08:15:59;122578.00;0.41;212.53;29631.00;0.10;51.94;;;;;16.20;1.00;;;;;;2164764;66;1015;-83
2024/04/10 08:18:26;413767.00;1.38;713.47;0.00;0.00;0.62;;;;;16.10;1.00;;;;;;2164829;66;1230;-84
2024/04/10 08:21:02;0.00;0.00;0.62;0.00;0.00;0.62;;;;;16.20;1.00;;;;;;2164827;66;1912;-85
2024/04/10 08:23:29;540791.00;1.80;932.09;103482.00;0.34;179.58;;;;;16.50;1.00;;;;;;2165359;66;1098;-84
2024/04/10 08:26:00;296143.00;0.99;511.29;76186.00;0.25;132.45;;;;;16.20;1.00;;;;;;2164855;66;947;-84
2024/04/10 08:28:27;230955.00;0.77;399.19;0.00;0.00;0.62;;;;;16.30;1.00;;;;;;2164850;66;1309;-84
2024/04/10 08:30:56;98479.00;0.33;170.95;0.00;0.00;0.62;;;;;16.30;1.00;;;;;;2164808;66;1080;-85
2024/04/10 08:33:23;96165.00;0.32;166.95;27354.00;0.09;48.00;;;;;16.20;1.00;;;;;;2164957;66;1050;-84
2024/04/10 08:35:59;110196.00;0.37;191.17;0.00;0.00;0.62;;;;;15.40;1.00;;;;;;2164807;66;992;-85
2024/04/10 08:38:25;81431.00;0.27;141.51;0.00;0.00;0.62;;;;;15.20;1.00;;;;;;2164791;66;1235;-85
2024/04/10 08:40:58;51600.00;0.17;89.95;0.00;0.00;0.62;;;;;15.80;1.00;;;;;;2164867;66;1858;-86
2024/04/10 08:43:27;167629.00;0.56;290.18;20528.00;0.07;36.18;;;;;15.40;1.00;;;;;;2164812;66;1247;-86
2024/04/10 08:45:57;30712.00;0.10;53.82;0.00;0.00;0.62;;;;;15.30;1.00;;;;;;2164764;66;1141;-85
2024/04/10 08:48:25;232805.00;0.78;402.37;66563.00;0.22;115.82;;;;;15.60;1.00;;;;;;2164837;66;1367;-85
2024/04/10 08:50:55;0.00;0.00;0.62;0.00;0.00;0.62;;;;;15.80;1.00;;;;;;2164770;66;1077;-85
2024/04/10 08:53:23;138843.00;0.46;240.58;0.00;0.00;0.62;;;;;16.20;1.00;;;;;;2164734;66;964;-85
2024/04/10 08:55:53;0.00;0.00;0.62;0.00;0.00;0.62;;;;;16.90;1.00;;;;;;2164807;66;946;-85
2024/04/10 08:58:19;27276.00;0.09;47.87;0.00;0.00;0.62;;;;;16.60;1.00;;;;;;2164784;66;1363;-88
2024/04/10 09:00:50;12142.00;0.04;21.66;0.00;0.00;0.62;;;;;16.20;1.00;;;;;;2164638;66;1904;-85
2024/04/10 09:03:16;176688.00;0.59;305.79;30646.00;0.10;53.70;;;;;16.30;1.00;;;;;;2164784;66;939;-86
2024/04/10 09:05:44;196714.00;0.66;340.27;46849.00;0.16;81.74;;;;;16.00;1.00;;;;;;2164783;66;1025;-85
2024/04/10 09:08:10;49662.00;0.17;86.60;0.00;0.00;0.62;;;;;16.00;1.00;;;;;;2164758;66;1215;-84
2024/04/10 09:10:39;234736.00;0.78;405.70;44623.00;0.15;77.89;;;;;16.50;1.00;;;;;;2164571;66;1129;-85
2024/04/10 09:13:08;155045.00;0.52;268.50;16531.00;0.06;29.26;;;;;16.50;1.00;;;;;;2164760;66;2295;-86
2024/04/10 09:15:37;74288.00;0.25;129.17;0.00;0.00;0.62;;;;;16.40;1.00;;;;;;2164613;66;2295;-85
2024/04/10 09:18:06;95611.00;0.32;166.00;13309.00;0.04;23.68;;;;;17.50;1.00;;;;;;2164669;66;1241;-84
2024/04/10 09:20:35;0.00;0.00;0.62;0.00;0.00;0.62;;;;;17.30;1.00;;;;;;2164561;66;976;-85
2024/04/10 09:23:04;183592.00;0.61;317.68;0.00;0.00;0.62;;;;;17.40;1.00;;;;;;2164581;66;1890;-86
2024/04/10 09:25:33;121432.00;0.40;210.55;0.00;0.00;0.62;;;;;17.90;1.00;;;;;;2164688;66;1377;-86
2024/04/10 09:28:00;48410.00;0.16;84.44;0.00;0.00;0.62;;;;;17.70;1.00;;;;;;2164624;66;1238;-85
2024/04/10 09:30:28;125718.00;0.42;217.94;17747.00;0.06;31.37;;;;;17.20;1.00;;;;;;2164704;66;2296;-85
2024/04/10 09:32:54;79933.00;0.27;138.92;0.00;0.00;0.62;;;;;17.10;1.00;;;;;;2164640;66;2217;-86
2024/04/10 09:35:28;329435.00;1.10;568.51;103860.00;0.35;180.23;;;;;17.10;1.00;;;;;;2164682;66;1650;-86
2024/04/10 09:37:56;47196.00;0.16;82.34;0.00;0.00;0.62;;;;;17.10;1.00;;;;;;2164713;66;1352;-86
2024/04/10 09:40:26;162947.00;0.54;282.12;0.00;0.00;0.62;;;;;16.60;1.00;;;;;;2164648;66;1023;-85
2024/04/10 09:43:01;91904.00;0.31;159.60;24186.00;0.08;42.52;;;;;16.70;1.00;;;;;;2164699;66;1904;-85
2024/04/10 09:45:34;65824.00;0.22;114.54;0.00;0.00;0.62;;;;;17.00;1.00;;;;;;2164714;66;1034;-86
2024/04/10 09:48:05;171888.00;0.57;297.52;31925.00;0.11;55.91;;;;;17.10;1.00;;;;;;2164667;66;1220;-83
2024/04/10 09:50:38;126263.00;0.42;218.88;0.00;0.00;0.62;;;;;17.40;1.00;;;;;;2164585;66;1179;-86
2024/04/10 09:53:05;238041.00;0.79;411.38;0.00;0.00;0.62;;;;;17.10;1.00;;;;;;2164683;66;993;-85
2024/04/10 09:55:33;3846.00;0.01;7.29;0.00;0.00;0.62;;;;;17.10;1.00;;;;;;2164584;66;1589;-85
2024/04/10 09:58:01;72861.00;0.24;126.70;0.00;0.00;0.62;;;;;17.60;1.00;;;;;;2164698;66;2346;-85
2024/04/10 10:00:30;72780.00;0.24;126.56;0.00;0.00;0.62;;;;;17.30;1.00;;;;;;2164768;66;924;-85
2024/04/10 10:03:06;208926.00;0.70;361.29;0.00;0.00;0.62;;;;;16.90;1.00;;;;;;2164571;66;1902;-85
2024/04/10 10:05:37;115274.00;0.38;199.93;0.00;0.00;0.62;;;;;17.40;1.00;;;;;;2164659;66;2425;-85
2024/04/10 10:08:05;505256.00;1.68;870.87;64858.00;0.22;112.87;;;;;17.60;1.00;;;;;;2164642;66;1358;-87
2024/04/10 10:10:45;266194.00;0.89;459.80;7221.00;0.02;13.13;;;;;18.00;1.00;;;;;;2164625;66;1140;-85
2024/04/10 10:13:11;17607.00;0.06;31.13;0.00;0.00;0.62;;;;;18.60;1.00;;;;;;2164502;66;1090;-85